createdAt,value
2019-04-23T00:01:49.244Z,11.08
2019-04-23T00:04:55.562Z,10.86
2019-04-23T00:11:13.310Z,10.78
2019-04-23T00:14:23.933Z,10.58
2019-04-23T00:17:30.455Z,10.69
2019-04-23T00:20:25.734Z,10.46
2019-04-23T00:23:44.645Z,10.29
2019-04-23T00:26:42.956Z,10.43
2019-04-23T00:32:56.010Z,10.33
2019-04-23T00:36:10.655Z,10.35
2019-04-23T00:39:15.205Z,10.29
2019-04-23T00:42:31.306Z,10.18
2019-04-23T00:45:33.266Z,10.29
2019-04-23T00:51:42.581Z,10.15
2019-04-23T00:54:57.259Z,10.18
2019-04-23T00:57:59.882Z,10.06
2019-04-23T01:01:02.499Z,10.01
2019-04-23T01:04:15.647Z,9.88
2019-04-23T01:07:18.924Z,9.97
2019-04-23T01:10:45.944Z,9.83
2019-04-23T01:13:49.598Z,10.18
2019-04-23T01:17:06.076Z,10.00
2019-04-23T01:20:09.750Z,9.92
2019-04-23T01:22:59.043Z,9.73
2019-04-23T01:26:23.867Z,9.76
2019-04-23T01:29:42.504Z,10.01
2019-04-23T01:32:42.453Z,9.91
2019-04-23T01:36:03.227Z,9.83
2019-04-23T01:39:00.386Z,9.75
2019-04-23T01:42:14.580Z,9.86
2019-04-23T01:48:17.842Z,9.93
2019-04-23T01:51:27.874Z,10.03
2019-04-23T01:54:35.016Z,9.97
2019-04-23T01:57:46.575Z,9.97
2019-04-23T02:00:46.918Z,9.89
2019-04-23T02:03:58.294Z,9.99
2019-04-23T02:10:18.305Z,10.00
2019-04-23T02:13:16.531Z,9.78
2019-04-23T02:16:24.731Z,9.56
2019-04-23T02:19:33.224Z,9.60
2019-04-23T02:23:04.443Z,9.68
2019-04-23T02:26:15.310Z,9.67
2019-04-23T02:32:19.085Z,9.47
2019-04-23T02:35:46.463Z,9.50
2019-04-23T02:38:46.167Z,9.49
2019-04-23T02:41:48.767Z,9.29
2019-04-23T02:44:46.370Z,9.41
2019-04-23T02:48:03.377Z,9.40
2019-04-23T02:50:57.788Z,9.56
2019-04-23T02:54:31.344Z,9.56
2019-04-23T02:57:13.383Z,9.45
2019-04-23T03:00:28.364Z,10.06
2019-04-23T03:03:38.615Z,10.29
2019-04-23T03:09:44.936Z,10.01
2019-04-23T03:19:45.554Z,9.48
2019-04-23T03:22:56.167Z,9.53
2019-04-23T03:25:56.888Z,9.63
2019-04-23T03:29:11.008Z,10.13
2019-04-23T03:32:51.920Z,10.22
2019-04-23T03:35:10.494Z,10.17
2019-04-23T03:50:43.507Z,9.84
2019-04-23T04:00:31.083Z,10.11
2019-04-23T04:03:42.364Z,9.84
2019-04-23T04:06:37.978Z,9.88
2019-04-23T04:09:38.714Z,9.93
2019-04-23T04:12:42.996Z,10.07
2019-04-23T04:15:55.379Z,9.94
2019-04-23T04:22:11.408Z,10.11
2019-04-23T04:25:14.514Z,10.15
2019-04-23T04:28:17.331Z,10.57
2019-04-23T04:31:34.716Z,10.69
2019-04-23T04:34:55.532Z,10.59
2019-04-23T04:41:03.409Z,11.16
2019-04-23T04:46:59.198Z,11.93
2019-04-23T04:50:06.547Z,12.73
2019-04-23T04:53:23.094Z,13.21
2019-04-23T04:56:29.100Z,13.81
2019-04-23T04:59:25.891Z,14.39
2019-04-23T05:02:53.922Z,13.79
2019-04-23T05:08:58.455Z,16.17
2019-04-23T05:12:01.404Z,15.45
2019-04-23T05:15:04.625Z,14.72
2019-04-23T05:24:31.853Z,15.33
2019-04-23T05:27:41.904Z,14.91
2019-04-23T05:30:45.665Z,15.04
2019-04-23T05:33:52.302Z,14.31
2019-04-23T05:36:53.984Z,14.58
2019-04-23T05:40:02.645Z,15.56
2019-04-23T05:43:12.697Z,15.72
2019-04-23T05:46:26.371Z,14.77
2019-04-23T05:49:26.155Z,14.59
2019-04-23T05:55:46.186Z,14.64
2019-04-23T05:58:52.998Z,14.78
2019-04-23T06:01:57.403Z,15.39
2019-04-23T06:04:58.850Z,14.85
2019-04-23T06:08:11.833Z,15.17
2019-04-23T06:11:19.228Z,15.22
2019-04-23T06:14:29.097Z,16.10
2019-04-23T06:17:24.960Z,15.91
2019-04-23T06:20:45.024Z,16.08
2019-04-23T06:23:50.224Z,15.65
2019-04-23T06:26:59.420Z,15.48
2019-04-23T06:29:59.374Z,15.15
2019-04-23T06:33:05.871Z,15.29
2019-04-23T06:36:13.573Z,15.23
2019-04-23T06:39:15.862Z,15.56
2019-04-23T06:42:29.539Z,14.82
2019-04-23T06:45:35.047Z,14.95
2019-04-23T06:48:40.800Z,15.03
2019-04-23T06:51:52.134Z,14.86
2019-04-23T06:55:01.070Z,15.20
2019-04-23T06:58:08.397Z,15.62
2019-04-23T07:01:05.548Z,15.54
2019-04-23T07:04:20.012Z,15.49
2019-04-23T07:10:35.267Z,15.36
2019-04-23T07:13:46.646Z,15.27
2019-04-23T07:16:58.582Z,15.34
2019-04-23T07:19:48.360Z,15.67
2019-04-23T07:22:56.885Z,15.60
2019-04-23T07:26:06.310Z,15.87
2019-04-23T07:29:09.992Z,16.43
2019-04-23T07:32:15.650Z,16.78
2019-04-23T07:35:24.614Z,16.69
2019-04-23T07:39:01.636Z,16.36
2019-04-23T07:42:29.479Z,16.51
2019-04-23T07:45:45.419Z,16.74
2019-04-23T07:48:47.752Z,17.10
2019-04-23T07:52:04.749Z,17.29
2019-04-23T07:55:13.747Z,16.83
2019-04-23T07:58:21.255Z,17.18
2019-04-23T08:01:14.200Z,16.66
2019-04-23T08:04:31.749Z,17.09
2019-04-23T08:07:37.533Z,17.04
2019-04-23T08:10:46.574Z,17.31
2019-04-23T08:16:52.019Z,17.51
2019-04-23T08:20:00.972Z,17.59
2019-04-23T08:23:16.547Z,17.77
2019-04-23T08:26:44.710Z,17.62
2019-04-23T08:29:45.862Z,17.93
2019-04-23T08:33:01.469Z,18.13
2019-04-23T08:36:09.589Z,17.67
2019-04-23T08:39:12.258Z,17.17
2019-04-23T08:45:28.705Z,17.75
2019-04-23T08:54:52.309Z,17.36
2019-04-23T08:57:47.051Z,18.00
2019-04-23T09:01:06.816Z,18.01
2019-04-23T09:04:08.953Z,18.53
2019-04-23T09:07:22.442Z,18.19
2019-04-23T09:10:30.058Z,17.88
2019-04-23T09:16:48.830Z,18.67
2019-04-23T09:20:06.533Z,18.93
2019-04-23T09:22:53.094Z,18.85
2019-04-23T09:25:57.565Z,18.96
2019-04-23T09:29:12.160Z,19.11
2019-04-23T09:35:53.939Z,19.70
2019-04-23T09:39:34.600Z,19.58
2019-04-23T09:43:01.002Z,19.82
2019-04-23T09:46:23.834Z,19.65
2019-04-23T09:52:36.833Z,19.79
2019-04-23T09:58:58.011Z,20.17
2019-04-23T10:01:52.934Z,20.11
2019-04-23T10:04:51.963Z,20.29
2019-04-23T10:07:56.276Z,20.23
2019-04-23T10:10:51.351Z,20.22
2019-04-23T10:13:56.702Z,20.59
2019-04-23T10:17:02.251Z,20.94
2019-04-23T10:20:08.747Z,20.80
2019-04-23T10:23:14.221Z,21.38
2019-04-23T10:26:21.840Z,22.26
2019-04-23T10:29:30.064Z,21.44
2019-04-23T10:32:35.910Z,22.06
2019-04-23T10:35:52.556Z,21.78
2019-04-23T10:38:54.868Z,21.81
2019-04-23T10:41:57.011Z,21.87
2019-04-23T10:45:47.880Z,21.98
2019-04-23T10:49:40.491Z,21.68
2019-04-23T10:52:30.675Z,21.82
2019-04-23T10:55:47.487Z,21.78
2019-04-23T11:01:58.687Z,21.43
2019-04-23T11:05:26.090Z,22.15
2019-04-23T11:08:08.111Z,22.37
2019-04-23T11:14:25.329Z,22.00
2019-04-23T11:17:45.510Z,22.33
2019-04-23T11:23:49.887Z,22.33
2019-04-23T11:26:52.959Z,21.94
2019-04-23T11:33:09.220Z,22.70
2019-04-23T11:39:23.959Z,22.94
2019-04-23T11:42:32.315Z,22.66
2019-04-23T11:45:44.724Z,22.58
2019-04-23T11:48:54.667Z,22.85
2019-04-23T11:51:57.983Z,22.31
2019-04-23T11:55:00.721Z,22.76
2019-04-23T12:01:49.896Z,22.72
2019-04-23T12:04:55.643Z,23.00
2019-04-23T12:08:30.132Z,22.73
2019-04-23T12:11:52.819Z,23.17
2019-04-23T12:17:50.891Z,23.52
2019-04-23T12:21:04.412Z,23.46
2019-04-23T12:24:28.853Z,24.09
2019-04-23T12:33:45.260Z,23.78
2019-04-23T12:40:00.790Z,23.09
2019-04-23T12:43:02.414Z,23.42
2019-04-23T12:46:03.538Z,23.76
2019-04-23T12:49:40.029Z,23.64
2019-04-23T12:52:25.276Z,23.36
2019-04-23T12:58:29.173Z,23.83
2019-04-23T13:01:49.754Z,23.90
2019-04-23T13:04:52.317Z,23.55
2019-04-23T13:08:02.095Z,23.43
2019-04-23T13:11:10.167Z,23.88
2019-04-23T13:14:20.342Z,23.79
2019-04-23T13:17:34.916Z,24.00
2019-04-23T13:20:27.990Z,24.22
2019-04-23T13:23:34.659Z,24.43
2019-04-23T13:26:37.956Z,24.09
2019-04-23T13:29:50.031Z,24.26
2019-04-23T13:33:02.042Z,24.43
2019-04-23T13:39:10.247Z,24.08
2019-04-23T13:42:24.302Z,24.47
2019-04-23T13:45:51.137Z,23.82
2019-04-23T13:54:59.702Z,24.54
2019-04-23T14:04:22.611Z,24.08
2019-04-23T14:07:34.304Z,24.41
2019-04-23T14:10:36.267Z,24.65
2019-04-23T14:13:44.884Z,24.66
2019-04-23T14:19:53.879Z,24.41
2019-04-23T14:29:04.201Z,24.93
2019-04-23T14:32:22.457Z,24.66
2019-04-23T14:41:56.406Z,24.50
2019-04-23T14:45:07.514Z,24.53
2019-04-23T14:48:04.001Z,24.83
2019-04-23T14:54:15.818Z,24.68
2019-04-23T14:57:30.431Z,24.55
2019-04-23T15:00:33.518Z,24.07
2019-04-23T15:03:40.182Z,24.31
2019-04-23T15:06:52.670Z,24.11
2019-04-23T15:09:57.547Z,24.12
2019-04-23T15:13:00.046Z,24.33
2019-04-23T15:22:47.939Z,23.77
2019-04-23T15:26:15.245Z,23.76
2019-04-23T15:28:29.077Z,23.84
2019-04-23T15:32:03.196Z,24.00
2019-04-23T15:35:15.973Z,24.00
2019-04-23T15:41:29.492Z,23.38
2019-04-23T15:44:33.713Z,23.38
2019-04-23T15:47:33.084Z,23.29
2019-04-23T15:50:41.037Z,23.36
2019-04-23T15:53:44.608Z,23.38
2019-04-23T15:56:54.737Z,23.11
2019-04-23T15:59:58.982Z,23.30
2019-04-23T16:02:37.827Z,22.90
2019-04-23T16:05:44.625Z,22.72
2019-04-23T16:09:21.875Z,22.67
2019-04-23T16:12:17.357Z,22.60
2019-04-23T16:15:32.819Z,22.36
2019-04-23T16:19:05.921Z,22.27
2019-04-23T16:22:03.788Z,21.99
2019-04-23T16:28:23.826Z,21.83
2019-04-23T16:31:31.310Z,21.58
2019-04-23T16:35:03.251Z,21.77
2019-04-23T16:38:01.404Z,21.50
2019-04-23T16:44:09.488Z,21.26
2019-04-23T16:47:18.684Z,21.27
2019-04-23T16:50:18.239Z,21.20
2019-04-23T16:53:26.705Z,21.15
2019-04-23T16:56:42.795Z,21.11
2019-04-23T16:59:50.779Z,21.18
2019-04-23T17:02:54.707Z,21.10
2019-04-23T17:05:57.838Z,21.22
2019-04-23T17:08:59.888Z,21.03
2019-04-23T17:12:09.118Z,20.99
2019-04-23T17:15:23.196Z,21.00
2019-04-23T17:18:26.255Z,20.81
2019-04-23T17:21:33.080Z,20.88
2019-04-23T17:24:30.060Z,20.72
2019-04-23T17:27:48.588Z,20.64
2019-04-23T17:31:06.975Z,20.69
2019-04-23T17:34:12.015Z,20.57
2019-04-23T17:37:21.725Z,20.67
2019-04-23T17:40:23.056Z,20.64
2019-04-23T17:43:35.111Z,20.51
2019-04-23T17:49:52.684Z,20.29
2019-04-23T17:52:59.075Z,20.37
2019-04-23T17:59:13.223Z,20.23
2019-04-23T18:02:40.920Z,20.04
2019-04-23T18:05:33.149Z,20.04
2019-04-23T18:08:27.747Z,20.19
2019-04-23T18:11:31.897Z,19.94
2019-04-23T18:14:40.783Z,19.72
2019-04-23T18:17:54.747Z,19.67
2019-04-23T18:21:36.327Z,19.94
2019-04-23T18:24:50.544Z,19.55
2019-04-23T18:27:58.207Z,19.33
2019-04-23T18:31:12.906Z,19.16
2019-04-23T18:34:22.135Z,19.16
2019-04-23T18:37:35.539Z,19.08
2019-04-23T18:40:54.580Z,18.88
2019-04-23T18:44:06.038Z,18.93
2019-04-23T18:47:04.321Z,18.70
2019-04-23T18:50:03.754Z,18.64
2019-04-23T18:53:15.896Z,18.48
2019-04-23T18:59:31.281Z,18.20
2019-04-23T19:03:30.522Z,17.98
2019-04-23T19:13:28.710Z,17.63
2019-04-23T19:16:36.791Z,17.63
2019-04-23T19:19:46.497Z,17.59
2019-04-23T19:22:54.909Z,17.42
2019-04-23T19:25:45.444Z,17.22
2019-04-23T19:28:55.789Z,17.01
2019-04-23T19:32:00.624Z,17.08
2019-04-23T19:35:37.643Z,17.09
2019-04-23T19:38:28.805Z,16.89
2019-04-23T19:41:39.695Z,17.00
2019-04-23T19:54:18.438Z,16.13
2019-04-23T19:57:02.053Z,16.05
2019-04-23T20:00:09.737Z,16.01
2019-04-23T20:03:26.665Z,15.93
2019-04-23T20:12:42.628Z,15.49
2019-04-23T20:16:05.286Z,15.47
2019-04-23T20:25:46.297Z,15.32
2019-04-23T20:28:44.273Z,15.30
2019-04-23T20:32:56.303Z,15.18
2019-04-23T20:34:59.060Z,15.04
2019-04-23T20:41:08.335Z,14.83
2019-04-23T20:44:15.611Z,14.84
2019-04-23T20:50:23.305Z,14.61
2019-04-23T20:53:30.999Z,14.57
2019-04-23T20:56:47.815Z,14.55
2019-04-23T20:59:49.550Z,14.46
2019-04-23T21:03:18.757Z,14.32
2019-04-23T21:12:58.126Z,14.09
2019-04-23T21:15:40.655Z,13.94
2019-04-23T21:18:44.428Z,13.81
2019-04-23T21:22:12.926Z,13.78
2019-04-23T21:25:11.730Z,13.68
2019-04-23T21:28:42.330Z,13.84
2019-04-23T21:31:28.277Z,13.81
2019-04-23T21:34:34.235Z,13.55
2019-04-23T21:37:56.013Z,13.58
2019-04-23T21:44:21.012Z,13.49
2019-04-23T21:47:14.991Z,13.25
2019-04-23T21:53:38.771Z,13.09
2019-04-23T21:56:37.130Z,13.18
2019-04-23T21:59:50.577Z,13.14
2019-04-23T22:06:06.019Z,12.99
2019-04-23T22:09:16.024Z,12.95
2019-04-23T22:15:27.902Z,13.03
2019-04-23T22:18:27.557Z,12.94
2019-04-23T22:21:41.199Z,12.84
2019-04-23T22:24:46.506Z,12.83
2019-04-23T22:27:47.793Z,12.65
2019-04-23T22:37:11.490Z,12.39
2019-04-23T22:40:10.158Z,12.26
2019-04-23T22:43:22.210Z,12.21
2019-04-23T22:46:36.778Z,12.33
2019-04-23T22:49:44.004Z,12.23
2019-04-23T22:52:55.438Z,12.13
2019-04-23T22:56:03.209Z,12.08
2019-04-23T22:59:10.510Z,12.05
2019-04-23T23:02:25.500Z,11.95
2019-04-23T23:05:56.429Z,11.97
2019-04-23T23:09:02.735Z,11.93
2019-04-23T23:11:54.223Z,11.83
2019-04-23T23:15:01.445Z,11.71
2019-04-23T23:21:12.054Z,11.66
2019-04-23T23:24:18.271Z,11.67
2019-04-23T23:27:31.644Z,11.74
2019-04-23T23:30:50.092Z,11.70
2019-04-23T23:36:54.704Z,11.66
2019-04-23T23:40:04.976Z,11.58
2019-04-23T23:43:14.576Z,11.49
2019-04-23T23:49:20.399Z,11.37
2019-04-23T23:52:34.594Z,11.28
2019-04-23T23:55:41.358Z,11.23
